Time;durP1;ratioP1;P1;durP2;ratioP2;P2;SDS_P1;SDS_P2;PMS_P1;PMS_P2;Temp;Humidity;BMP_temperature;BMP_pressure;BME280_temperature;BME280_humidity;BME280_pressure;Samples;Min_cycle;Max_cycle;Signal;HPM_P1;HPM_P2
2022/11/01 00:01:39;;;;;;;;;;;17.80;99.90;;;;;;5051198;28;19913;-24
2022/11/01 00:04:04;;;;;;;;;;;17.80;99.90;;;;;;5050747;28;19912;-24
2022/11/01 00:06:30;;;;;;;;;;;17.80;99.90;;;;;;5051093;28;19944;-24
2022/11/01 00:08:55;;;;;;;;;;;17.80;99.90;;;;;;5051366;28;19995;-24
2022/11/01 00:11:21;;;;;;;;;;;17.80;99.90;;;;;;5051069;28;19912;-24
2022/11/01 00:13:47;;;;;;;;;;;17.80;99.90;;;;;;5050875;28;19912;-24
2022/11/01 00:16:14;;;;;;;;;;;17.80;99.90;;;;;;5051448;28;19912;-24
2022/11/01 00:18:40;;;;;;;;;;;17.80;99.90;;;;;;5050845;28;20284;-24
2022/11/01 00:21:05;;;;;;;;;;;17.80;99.90;;;;;;5050959;28;19912;-24
2022/11/01 00:23:31;;;;;;;;;;;17.80;99.90;;;;;;5050620;28;19919;-24
2022/11/01 00:26:00;;;;;;;;;;;17.80;99.90;;;;;;5051935;28;19917;-24
2022/11/01 00:28:26;;;;;;;;;;;17.80;99.90;;;;;;5050805;28;19921;-24
2022/11/01 00:30:52;;;;;;;;;;;17.80;99.90;;;;;;5051014;28;19912;-24
2022/11/01 00:33:18;;;;;;;;;;;17.70;99.90;;;;;;5050773;28;19959;-24
2022/11/01 00:35:45;;;;;;;;;;;17.80;99.90;;;;;;5051122;28;19911;-24
2022/11/01 00:38:11;;;;;;;;;;;17.80;99.90;;;;;;5050727;28;20440;-24
2022/11/01 00:40:37;;;;;;;;;;;17.70;99.90;;;;;;5051325;28;19913;-24
2022/11/01 00:43:02;;;;;;;;;;;17.80;99.90;;;;;;5050573;28;19913;-24
2022/11/01 00:45:28;;;;;;;;;;;17.80;99.90;;;;;;5051118;28;20293;-24
2022/11/01 00:47:53;;;;;;;;;;;17.70;99.90;;;;;;5050681;28;20305;-24
2022/11/01 00:50:19;;;;;;;;;;;17.70;99.90;;;;;;5050638;28;19919;-24
2022/11/01 00:52:44;;;;;;;;;;;17.70;99.90;;;;;;5050834;28;19954;-24
2022/11/01 00:55:10;;;;;;;;;;;17.70;99.90;;;;;;5050497;28;19963;-24
2022/11/01 00:57:35;;;;;;;;;;;17.70;99.90;;;;;;5050432;28;19956;-24
2022/11/01 01:00:01;;;;;;;;;;;17.70;99.90;;;;;;5050550;28;19916;-24
2022/11/01 01:02:27;;;;;;;;;;;17.70;99.90;;;;;;5050003;28;19923;-24
2022/11/01 01:04:53;;;;;;;;;;;17.70;99.90;;;;;;5051581;28;20451;-24
2022/11/01 01:07:19;;;;;;;;;;;17.70;99.90;;;;;;5054001;28;20271;-24
2022/11/01 01:09:44;;;;;;;;;;;17.70;99.90;;;;;;5054235;28;19916;-24
2022/11/01 01:12:10;;;;;;;;;;;17.70;99.90;;;;;;5052748;28;19913;-24
2022/11/01 01:14:35;;;;;;;;;;;17.70;99.90;;;;;;5053624;28;19908;-24
2022/11/01 01:17:01;;;;;;;;;;;17.70;99.90;;;;;;5053745;28;19908;-24
2022/11/01 01:19:27;;;;;;;;;;;17.70;99.90;;;;;;5053864;28;20004;-24
2022/11/01 01:21:53;;;;;;;;;;;17.70;99.90;;;;;;5054384;28;20167;-24
2022/11/01 01:24:18;;;;;;;;;;;17.70;99.90;;;;;;5053468;28;20297;-24
2022/11/01 01:26:44;;;;;;;;;;;17.70;99.90;;;;;;5053781;28;19940;-24
2022/11/01 01:29:09;;;;;;;;;;;17.70;99.90;;;;;;5053679;28;19939;-24
2022/11/01 01:31:35;;;;;;;;;;;17.70;99.90;;;;;;5053686;28;19995;-24
2022/11/01 01:34:00;;;;;;;;;;;17.70;99.90;;;;;;5053415;28;19915;-24
2022/11/01 01:36:26;;;;;;;;;;;17.70;99.90;;;;;;5053430;28;19908;-24
2022/11/01 01:38:52;;;;;;;;;;;17.70;99.90;;;;;;5054153;28;19909;-24
2022/11/01 01:44:21;;;;;;;;;;;17.60;99.90;;;;;;5052793;28;19939;-24
2022/11/01 01:46:47;;;;;;;;;;;17.60;99.90;;;;;;5053204;28;19909;-24
2022/11/01 01:49:12;;;;;;;;;;;17.60;99.90;;;;;;5053367;28;19912;-24
2022/11/01 01:51:38;;;;;;;;;;;17.60;99.90;;;;;;5053670;28;19909;-24
2022/11/01 01:54:04;;;;;;;;;;;17.60;99.90;;;;;;5053341;28;20380;-24
2022/11/01 01:56:32;;;;;;;;;;;17.60;99.90;;;;;;5053052;28;19916;-24
2022/11/01 01:59:01;;;;;;;;;;;17.60;99.90;;;;;;5053140;28;19915;-24
2022/11/01 02:01:27;;;;;;;;;;;17.60;99.90;;;;;;5053221;28;20430;-24
2022/11/01 02:03:53;;;;;;;;;;;17.60;99.90;;;;;;5052661;28;20046;-24
2022/11/01 02:06:19;;;;;;;;;;;17.60;99.90;;;;;;5053118;28;19999;-24
2022/11/01 02:08:56;;;;;;;;;;;17.60;99.90;;;;;;5052977;28;20007;-24
2022/11/01 02:11:22;;;;;;;;;;;17.60;99.90;;;;;;5053009;28;19913;-24
2022/11/01 02:13:48;;;;;;;;;;;17.60;99.90;;;;;;5052479;28;19916;-24
2022/11/01 02:16:19;;;;;;;;;;;17.60;99.90;;;;;;5051303;28;19909;-24
2022/11/01 02:18:47;;;;;;;;;;;17.60;99.90;;;;;;5052856;28;19909;-24
2022/11/01 02:21:22;;;;;;;;;;;17.60;99.90;;;;;;5052855;28;19909;-24
2022/11/01 02:24:05;;;;;;;;;;;17.60;99.90;;;;;;5052148;28;20314;-24
2022/11/01 02:26:31;;;;;;;;;;;17.60;99.90;;;;;;5052645;28;19908;-24
2022/11/01 02:29:06;;;;;;;;;;;17.60;99.90;;;;;;5052762;28;19920;-24
2022/11/01 02:31:34;;;;;;;;;;;17.60;99.90;;;;;;5052612;28;19984;-24
2022/11/01 02:34:09;;;;;;;;;;;17.60;99.90;;;;;;5052284;28;20389;-24
2022/11/01 02:36:50;;;;;;;;;;;17.60;99.90;;;;;;5052319;28;19913;-24
2022/11/01 02:39:16;;;;;;;;;;;17.60;99.90;;;;;;5052432;28;19955;-24
2022/11/01 02:41:44;;;;;;;;;;;17.60;99.90;;;;;;5067536;28;19948;-24
2022/11/01 02:44:16;;;;;;;;;;;17.60;99.90;;;;;;5052156;28;19909;-24
2022/11/01 02:47:00;;;;;;;;;;;17.60;99.90;;;;;;5052773;28;19944;-24
2022/11/01 02:49:31;;;;;;;;;;;17.60;99.90;;;;;;5052116;28;19913;-24
2022/11/01 02:51:58;;;;;;;;;;;17.60;99.90;;;;;;5052585;28;19931;-24
2022/11/01 02:54:31;;;;;;;;;;;17.60;99.90;;;;;;5052233;28;19933;-24
2022/11/01 02:56:58;;;;;;;;;;;17.60;99.90;;;;;;5052096;28;20259;-24
2022/11/01 02:59:25;;;;;;;;;;;17.50;99.90;;;;;;5052024;28;20381;-24
2022/11/01 03:02:11;;;;;;;;;;;17.50;99.90;;;;;;5051881;28;20396;-24
2022/11/01 03:04:37;;;;;;;;;;;17.50;99.90;;;;;;5051568;28;19908;-24
2022/11/01 03:07:05;;;;;;;;;;;17.50;99.90;;;;;;5051929;28;19913;-24
2022/11/01 03:09:31;;;;;;;;;;;17.50;99.90;;;;;;5051683;28;19988;-24
2022/11/01 03:12:00;;;;;;;;;;;17.50;99.90;;;;;;5051710;28;19909;-24
2022/11/01 03:14:48;;;;;;;;;;;17.50;99.90;;;;;;5051303;28;20429;-24
2022/11/01 03:17:13;;;;;;;;;;;17.50;99.90;;;;;;5051671;28;19912;-24
2022/11/01 03:19:45;;;;;;;;;;;17.50;99.90;;;;;;5051655;28;19974;-24
2022/11/01 03:22:23;;;;;;;;;;;17.50;99.90;;;;;;5051508;28;20389;-24
2022/11/01 03:25:37;;;;;;;;;;;17.50;99.90;;;;;;5051691;28;20386;-24
2022/11/01 03:27:55;;;;;;;;;;;17.50;99.90;;;;;;5050573;28;19913;-24
2022/11/01 03:30:20;;;;;;;;;;;17.60;99.90;;;;;;5051243;28;19916;-24
2022/11/01 03:32:48;;;;;;;;;;;17.60;99.90;;;;;;5050998;28;20398;-24
2022/11/01 03:35:18;;;;;;;;;;;17.50;99.90;;;;;;5051443;28;20370;-24
2022/11/01 03:37:44;;;;;;;;;;;17.50;99.90;;;;;;5051454;28;19928;-24
2022/11/01 03:40:11;;;;;;;;;;;17.50;99.90;;;;;;5051380;28;19913;-24
2022/11/01 03:42:37;;;;;;;;;;;17.50;99.90;;;;;;5050635;28;20259;-24
2022/11/01 03:45:07;;;;;;;;;;;17.50;99.90;;;;;;5051240;28;20000;-24
2022/11/01 03:47:33;;;;;;;;;;;17.50;99.90;;;;;;5051023;28;19916;-24
2022/11/01 03:50:15;;;;;;;;;;;17.50;99.90;;;;;;5051244;28;19909;-24
2022/11/01 03:52:40;;;;;;;;;;;17.50;99.90;;;;;;5050807;28;20297;-24
2022/11/01 03:55:16;;;;;;;;;;;17.50;99.90;;;;;;5051069;28;19920;-24
2022/11/01 03:57:42;;;;;;;;;;;17.50;99.90;;;;;;5051505;28;19920;-24
2022/11/01 04:00:08;;;;;;;;;;;17.50;99.90;;;;;;5051176;28;19909;-24
2022/11/01 04:02:34;;;;;;;;;;;17.50;99.90;;;;;;5050507;28;19920;-24
2022/11/01 04:04:59;;;;;;;;;;;17.50;99.90;;;;;;5051003;28;19908;-24
2022/11/01 04:07:25;;;;;;;;;;;17.50;99.90;;;;;;5051148;28;19957;-24
2022/11/01 04:09:50;;;;;;;;;;;17.50;99.90;;;;;;5050931;28;19912;-24
2022/11/01 04:12:16;;;;;;;;;;;17.50;99.90;;;;;;5050994;28;20370;-24
2022/11/01 04:22:54;;;;;;;;;;;17.50;99.90;;;;;;5050659;28;19919;-24
2022/11/01 04:25:19;;;;;;;;;;;17.50;99.90;;;;;;5050866;28;20337;-24
2022/11/01 04:27:45;;;;;;;;;;;17.50;99.90;;;;;;5050774;28;19909;-24
2022/11/01 04:30:10;;;;;;;;;;;17.50;99.90;;;;;;5050866;28;19920;-24
2022/11/01 04:32:36;;;;;;;;;;;17.40;99.90;;;;;;5050289;28;20480;-24
2022/11/01 04:35:01;;;;;;;;;;;17.40;99.90;;;;;;5051273;28;19916;-24
2022/11/01 04:37:27;;;;;;;;;;;17.40;99.90;;;;;;5049166;28;20363;-24
2022/11/01 04:39:52;;;;;;;;;;;17.40;99.90;;;;;;5051977;28;20412;-24
2022/11/01 04:42:18;;;;;;;;;;;17.40;99.90;;;;;;5053220;28;19963;-24
2022/11/01 04:44:45;;;;;;;;;;;17.50;99.90;;;;;;5053964;28;19955;-24
2022/11/01 04:47:11;;;;;;;;;;;17.40;99.90;;;;;;5054426;28;20385;-24
2022/11/01 04:49:36;;;;;;;;;;;17.40;99.90;;;;;;5054694;28;19959;-24
2022/11/01 04:52:02;;;;;;;;;;;17.40;99.90;;;;;;5054369;28;19942;-24
2022/11/01 04:54:32;;;;;;;;;;;17.40;99.90;;;;;;5054146;28;20416;-24
2022/11/01 04:56:57;;;;;;;;;;;17.40;99.90;;;;;;5053030;28;19999;-24
2022/11/01 04:59:23;;;;;;;;;;;17.40;99.90;;;;;;5054385;28;19936;-24
2022/11/01 05:01:48;;;;;;;;;;;17.40;99.90;;;;;;5054129;28;20410;-24
2022/11/01 05:04:14;;;;;;;;;;;17.40;99.90;;;;;;5053806;28;19922;-24
2022/11/01 05:06:39;;;;;;;;;;;17.40;99.90;;;;;;5054123;28;19966;-24
2022/11/01 05:09:05;;;;;;;;;;;17.40;99.90;;;;;;5054116;28;19990;-24
2022/11/01 05:11:30;;;;;;;;;;;17.40;99.90;;;;;;5054209;28;19924;-24
2022/11/01 05:13:56;;;;;;;;;;;17.40;99.90;;;;;;5053656;28;20267;-24
2022/11/01 05:16:21;;;;;;;;;;;17.40;99.90;;;;;;5053890;28;19909;-24
2022/11/01 05:18:47;;;;;;;;;;;17.40;99.90;;;;;;5053840;28;19917;-24
2022/11/01 05:21:13;;;;;;;;;;;17.40;99.90;;;;;;5053980;28;19909;-24
2022/11/01 05:23:38;;;;;;;;;;;17.40;99.90;;;;;;5053502;28;19913;-24
2022/11/01 05:26:04;;;;;;;;;;;17.40;99.90;;;;;;5053853;28;19916;-24
2022/11/01 05:28:29;;;;;;;;;;;17.40;99.90;;;;;;5053663;28;20055;-24
2022/11/01 05:30:57;;;;;;;;;;;17.40;99.90;;;;;;5052513;28;19916;-24
2022/11/01 05:33:23;;;;;;;;;;;17.40;99.90;;;;;;5053195;28;20320;-24
2022/11/01 05:35:48;;;;;;;;;;;17.40;99.90;;;;;;5053824;28;19916;-24
2022/11/01 05:38:13;;;;;;;;;;;17.40;99.90;;;;;;5053327;28;20009;-24
2022/11/01 05:40:39;;;;;;;;;;;17.40;99.90;;;;;;5053517;28;20281;-24
2022/11/01 05:43:05;;;;;;;;;;;17.40;99.90;;;;;;5052981;28;19913;-24
2022/11/01 05:45:30;;;;;;;;;;;17.40;99.90;;;;;;5053469;28;19913;-24
2022/11/01 05:48:00;;;;;;;;;;;17.40;99.90;;;;;;5053412;28;19913;-24
2022/11/01 05:50:25;;;;;;;;;;;17.40;99.90;;;;;;5053237;28;20338;-24
2022/11/01 05:52:51;;;;;;;;;;;17.40;99.90;;;;;;5052285;28;19940;-24
2022/11/01 05:55:16;;;;;;;;;;;17.40;99.90;;;;;;5053553;28;19913;-24
2022/11/01 05:57:42;;;;;;;;;;;17.40;99.90;;;;;;5053278;28;19908;-24
2022/11/01 06:00:07;;;;;;;;;;;17.40;99.90;;;;;;5053322;28;19916;-24
2022/11/01 06:02:33;;;;;;;;;;;17.40;99.90;;;;;;5052762;28;19994;-24
2022/11/01 06:04:59;;;;;;;;;;;17.40;99.90;;;;;;5053337;28;19913;-24
2022/11/01 06:07:25;;;;;;;;;;;17.40;99.90;;;;;;5052965;28;19913;-24
2022/11/01 06:09:51;;;;;;;;;;;17.30;99.90;;;;;;5053079;28;19912;-24
2022/11/01 06:12:16;;;;;;;;;;;17.30;99.90;;;;;;5068363;28;20340;-24
2022/11/01 06:14:42;;;;;;;;;;;17.30;99.90;;;;;;5052634;28;20004;-24
2022/11/01 06:17:11;;;;;;;;;;;17.40;99.90;;;;;;5052785;28;19916;-24
2022/11/01 06:19:37;;;;;;;;;;;17.30;99.90;;;;;;5052844;28;20374;-24
2022/11/01 06:22:02;;;;;;;;;;;17.30;99.90;;;;;;5052724;28;19962;-24
2022/11/01 06:24:28;;;;;;;;;;;17.30;99.90;;;;;;5052590;28;19909;-24
2022/11/01 06:26:53;;;;;;;;;;;17.30;99.90;;;;;;5053158;28;19909;-24
2022/11/01 06:29:19;;;;;;;;;;;17.40;99.90;;;;;;5053119;28;20317;-24
2022/11/01 06:31:44;;;;;;;;;;;17.30;99.90;;;;;;5053213;28;19913;-24
2022/11/01 06:34:10;;;;;;;;;;;17.30;99.90;;;;;;5052495;28;20381;-24
2022/11/01 06:36:35;;;;;;;;;;;17.30;99.90;;;;;;5052780;28;19913;-24
2022/11/01 06:39:01;;;;;;;;;;;17.30;99.90;;;;;;5052397;28;19909;-24
2022/11/01 06:41:26;;;;;;;;;;;17.30;99.90;;;;;;5052503;28;20328;-24
2022/11/01 06:43:52;;;;;;;;;;;17.30;99.90;;;;;;5051895;28;20255;-24
2022/11/01 06:46:17;;;;;;;;;;;17.30;99.90;;;;;;5052395;28;19915;-24
2022/11/01 06:48:45;;;;;;;;;;;17.30;99.90;;;;;;5052171;28;19916;-24
2022/11/01 06:51:11;;;;;;;;;;;17.30;99.90;;;;;;5052261;28;19917;-24
2022/11/01 06:53:36;;;;;;;;;;;17.30;99.90;;;;;;5051855;28;19919;-24
2022/11/01 06:56:02;;;;;;;;;;;17.30;99.90;;;;;;5052197;28;19936;-24
2022/11/01 06:58:27;;;;;;;;;;;17.30;99.90;;;;;;5051999;28;19908;-24
2022/11/01 07:00:53;;;;;;;;;;;17.30;99.90;;;;;;5052009;28;19913;-24
2022/11/01 07:03:18;;;;;;;;;;;17.30;99.90;;;;;;5051479;28;20137;-24
2022/11/01 07:05:44;;;;;;;;;;;17.30;99.90;;;;;;5051959;28;19916;-24
2022/11/01 07:08:11;;;;;;;;;;;17.30;99.90;;;;;;5051839;28;19999;-24
2022/11/01 07:10:38;;;;;;;;;;;17.30;99.90;;;;;;5051957;28;19923;-24
2022/11/01 07:13:05;;;;;;;;;;;17.30;99.90;;;;;;5051313;28;20282;-24
2022/11/01 07:15:30;;;;;;;;;;;17.30;99.90;;;;;;5052219;28;19913;-24
2022/11/01 07:17:56;;;;;;;;;;;17.30;99.90;;;;;;5051624;28;19909;-24
2022/11/01 07:20:22;;;;;;;;;;;17.30;99.90;;;;;;5050324;28;19908;-24
2022/11/01 07:22:55;;;;;;;;;;;17.30;99.90;;;;;;5051940;28;19953;-24
2022/11/01 07:25:21;;;;;;;;;;;17.30;99.90;;;;;;5051271;28;19959;-24
2022/11/01 07:27:46;;;;;;;;;;;17.30;99.90;;;;;;5052715;28;19960;-24
2022/11/01 07:30:12;;;;;;;;;;;17.30;99.90;;;;;;5051509;28;19999;-24
2022/11/01 07:32:37;;;;;;;;;;;17.30;99.90;;;;;;5051423;28;20286;-24
2022/11/01 07:35:03;;;;;;;;;;;17.30;99.90;;;;;;5051408;28;19908;-24
2022/11/01 07:37:29;;;;;;;;;;;17.30;99.90;;;;;;5052066;28;19936;-25
2022/11/01 07:39:55;;;;;;;;;;;17.30;99.90;;;;;;5052164;28;19919;-24
2022/11/01 07:42:20;;;;;;;;;;;17.20;99.90;;;;;;5051234;28;19920;-24
2022/11/01 07:44:45;;;;;;;;;;;17.30;99.90;;;;;;5051234;28;19909;-24
2022/11/01 07:47:11;;;;;;;;;;;17.20;99.90;;;;;;5050257;28;19910;-24
2022/11/01 07:49:37;;;;;;;;;;;17.30;99.90;;;;;;5051908;28;19908;-24
2022/11/01 07:52:03;;;;;;;;;;;17.30;99.90;;;;;;5051456;28;20050;-24
2022/11/01 07:54:28;;;;;;;;;;;17.30;99.90;;;;;;5051695;28;20287;-24
2022/11/01 07:56:54;;;;;;;;;;;17.30;99.90;;;;;;5051772;28;19909;-24
2022/11/01 07:59:19;;;;;;;;;;;17.30;99.90;;;;;;5052035;28;20035;-24
2022/11/01 08:01:45;;;;;;;;;;;17.30;99.90;;;;;;5052095;28;20308;-24
2022/11/01 08:04:10;;;;;;;;;;;17.30;99.90;;;;;;5051619;28;19921;-24
2022/11/01 08:06:36;;;;;;;;;;;17.30;99.90;;;;;;5052617;28;20004;-24
2022/11/01 08:09:01;;;;;;;;;;;17.30;99.90;;;;;;5051223;28;20361;-24
2022/11/01 08:11:27;;;;;;;;;;;17.20;99.90;;;;;;5052007;28;20007;-24
2022/11/01 08:13:53;;;;;;;;;;;17.30;99.90;;;;;;5051272;28;20396;-24
2022/11/01 08:16:18;;;;;;;;;;;17.30;99.90;;;;;;5053884;28;20371;-24
2022/11/01 08:18:44;;;;;;;;;;;17.20;99.90;;;;;;5055191;28;20358;-24
2022/11/01 08:21:11;;;;;;;;;;;17.30;99.90;;;;;;5055310;28;19954;-24
2022/11/01 08:23:37;;;;;;;;;;;17.30;99.90;;;;;;5055796;28;19916;-24
2022/11/01 08:26:05;;;;;;;;;;;17.30;99.90;;;;;;5055413;28;19908;-24
2022/11/01 08:28:30;;;;;;;;;;;17.20;99.90;;;;;;5055856;28;19909;-24
2022/11/01 08:30:56;;;;;;;;;;;17.30;99.90;;;;;;5054171;28;20359;-23
2022/11/01 08:33:21;;;;;;;;;;;17.30;99.90;;;;;;5054534;28;20427;-24
2022/11/01 08:35:47;;;;;;;;;;;17.30;99.90;;;;;;5054848;28;19919;-24
2022/11/01 08:38:12;;;;;;;;;;;17.30;99.90;;;;;;5055350;28;19921;-24
2022/11/01 08:40:39;;;;;;;;;;;17.30;99.90;;;;;;5054586;28;20000;-24
2022/11/01 08:43:04;;;;;;;;;;;17.30;99.90;;;;;;5054225;28;19921;-24
2022/11/01 08:45:30;;;;;;;;;;;17.30;99.90;;;;;;5054579;28;19909;-24
2022/11/01 08:47:59;;;;;;;;;;;17.30;99.90;;;;;;5054382;28;19971;-24
2022/11/01 08:50:25;;;;;;;;;;;17.30;99.90;;;;;;5054472;28;19913;-24
2022/11/01 08:52:50;;;;;;;;;;;17.30;99.90;;;;;;5054073;28;19920;-24
2022/11/01 08:55:16;;;;;;;;;;;17.30;99.90;;;;;;5069431;28;19909;-24
2022/11/01 08:57:41;;;;;;;;;;;17.30;99.90;;;;;;5053949;28;20313;-24
2022/11/01 09:00:09;;;;;;;;;;;17.30;99.90;;;;;;5054215;28;19908;-24
2022/11/01 09:02:34;;;;;;;;;;;17.30;99.90;;;;;;5052321;28;19924;-24
2022/11/01 09:05:03;;;;;;;;;;;17.30;99.90;;;;;;5054280;28;20294;-24
2022/11/01 09:07:29;;;;;;;;;;;17.30;99.90;;;;;;5054335;28;19919;-24
2022/11/01 09:09:55;;;;;;;;;;;17.30;99.90;;;;;;5054074;28;20000;-24
2022/11/01 09:12:20;;;;;;;;;;;17.30;99.90;;;;;;5053699;28;20275;-24
2022/11/01 09:14:47;;;;;;;;;;;17.30;99.90;;;;;;5053525;28;19912;-24
2022/11/01 09:17:13;;;;;;;;;;;17.30;99.90;;;;;;5053950;28;19909;-24
2022/11/01 09:19:39;;;;;;;;;;;17.30;99.90;;;;;;5054001;28;19909;-24
2022/11/01 09:22:05;;;;;;;;;;;17.30;99.90;;;;;;5053971;28;20011;-24
2022/11/01 09:24:30;;;;;;;;;;;17.30;99.90;;;;;;5053924;28;19913;-24
2022/11/01 09:26:56;;;;;;;;;;;17.30;99.90;;;;;;5052807;28;19915;-23
2022/11/01 09:29:21;;;;;;;;;;;17.40;99.90;;;;;;5053827;28;20493;-24
2022/11/01 09:31:50;;;;;;;;;;;17.50;99.90;;;;;;5053640;28;20377;-24
2022/11/01 09:34:16;;;;;;;;;;;17.50;99.90;;;;;;5053518;28;19913;-24
2022/11/01 09:36:42;;;;;;;;;;;17.50;99.90;;;;;;5053575;28;19917;-24
2022/11/01 09:39:08;;;;;;;;;;;17.60;99.90;;;;;;5053602;28;19917;-24
2022/11/01 09:41:41;;;;;;;;;;;17.70;99.90;;;;;;5053886;28;20392;-24
2022/11/01 09:44:13;;;;;;;;;;;17.60;99.90;;;;;;5052123;28;19913;-24
2022/11/01 09:46:59;;;;;;;;;;;17.70;99.90;;;;;;5053526;28;19909;-24
2022/11/01 09:49:27;;;;;;;;;;;17.80;99.90;;;;;;5052914;28;19909;-24
2022/11/01 09:51:53;;;;;;;;;;;17.80;99.90;;;;;;5053939;28;19963;-24
2022/11/01 09:54:20;;;;;;;;;;;17.90;99.90;;;;;;5053362;28;19909;-24
2022/11/01 09:56:50;;;;;;;;;;;17.90;99.90;;;;;;5053648;28;20313;-24
2022/11/01 09:59:24;;;;;;;;;;;17.90;99.90;;;;;;5053141;28;19916;-24
2022/11/01 10:02:08;;;;;;;;;;;17.90;99.90;;;;;;5053666;28;20277;-24
2022/11/01 10:04:43;;;;;;;;;;;17.90;99.90;;;;;;5068273;28;20007;-24
2022/11/01 10:07:18;;;;;;;;;;;17.90;99.90;;;;;;5053203;28;19915;-24
2022/11/01 10:09:55;;;;;;;;;;;17.90;99.90;;;;;;5053116;28;19909;-24
2022/11/01 10:12:33;;;;;;;;;;;17.90;99.90;;;;;;5052470;28;20008;-24
2022/11/01 10:15:14;;;;;;;;;;;17.90;99.90;;;;;;5053251;28;19958;-24
2022/11/01 10:17:53;;;;;;;;;;;17.90;99.90;;;;;;5052919;28;19909;-24
2022/11/01 10:20:24;;;;;;;;;;;17.90;99.90;;;;;;5052928;28;19920;-24
2022/11/01 10:22:50;;;;;;;;;;;17.80;99.90;;;;;;5052605;28;19913;-24
2022/11/01 10:25:18;;;;;;;;;;;17.80;99.90;;;;;;5053444;28;19984;-24
2022/11/01 10:27:59;;;;;;;;;;;17.80;99.90;;;;;;5053119;28;20362;-24
2022/11/01 10:30:26;;;;;;;;;;;17.80;99.90;;;;;;5053496;28;19909;-24
2022/11/01 10:33:00;;;;;;;;;;;17.90;99.90;;;;;;5053177;28;19919;-24
2022/11/01 10:35:28;;;;;;;;;;;17.80;99.90;;;;;;5053431;28;19956;-24
2022/11/01 10:38:12;;;;;;;;;;;17.80;99.90;;;;;;5052481;28;20071;-24
2022/11/01 10:40:45;;;;;;;;;;;17.80;99.90;;;;;;5067936;28;19958;-24
2022/11/01 10:43:15;;;;;;;;;;;17.80;99.90;;;;;;5052957;28;19913;-24
2022/11/01 10:45:42;;;;;;;;;;;17.80;99.90;;;;;;5052938;28;19920;-24
2022/11/01 10:48:09;;;;;;;;;;;17.80;99.90;;;;;;5052510;28;20290;-24
2022/11/01 10:50:34;;;;;;;;;;;17.80;99.90;;;;;;5052675;28;20342;-24
2022/11/01 10:53:05;;;;;;;;;;;17.80;99.90;;;;;;5052648;28;20298;-24
2022/11/01 10:55:38;;;;;;;;;;;17.80;99.90;;;;;;5052164;28;19948;-24
2022/11/01 10:58:07;;;;;;;;;;;17.80;99.90;;;;;;5052038;28;20352;-24
2022/11/01 11:00:33;;;;;;;;;;;17.70;99.90;;;;;;5052786;28;19924;-24
2022/11/01 11:03:01;;;;;;;;;;;17.80;99.90;;;;;;5051946;28;19916;-24
2022/11/01 11:05:29;;;;;;;;;;;17.80;99.90;;;;;;5052208;28;20401;-24
2022/11/01 11:07:56;;;;;;;;;;;17.80;99.90;;;;;;5052132;28;19909;-24
2022/11/01 11:10:26;;;;;;;;;;;17.80;99.90;;;;;;5052367;28;19924;-24
2022/11/01 11:12:55;;;;;;;;;;;17.80;99.90;;;;;;5051362;28;19916;-24
2022/11/01 11:15:30;;;;;;;;;;;17.80;99.90;;;;;;5052185;28;19996;-24
2022/11/01 11:17:58;;;;;;;;;;;17.80;99.90;;;;;;5052166;28;19962;-24
2022/11/01 11:20:24;;;;;;;;;;;17.80;99.90;;;;;;5051882;28;19924;-24
2022/11/01 11:22:50;;;;;;;;;;;17.80;99.90;;;;;;5051567;28;19950;-24
2022/11/01 11:25:17;;;;;;;;;;;17.90;99.90;;;;;;5052066;28;19913;-24
2022/11/01 11:27:46;;;;;;;;;;;17.90;99.90;;;;;;5051843;28;19915;-23
2022/11/01 11:30:13;;;;;;;;;;;17.90;99.90;;;;;;5051875;28;20285;-24
2022/11/01 11:32:45;;;;;;;;;;;17.90;99.90;;;;;;5051406;28;19919;-24
2022/11/01 11:35:18;;;;;;;;;;;17.80;99.90;;;;;;5051970;28;19908;-24
2022/11/01 11:37:52;;;;;;;;;;;17.90;99.90;;;;;;5051082;28;19923;-24
2022/11/01 11:40:20;;;;;;;;;;;17.80;99.90;;;;;;5052175;28;19917;-24
2022/11/01 11:42:48;;;;;;;;;;;17.80;99.90;;;;;;5051242;28;19912;-24
2022/11/01 11:45:23;;;;;;;;;;;17.80;99.90;;;;;;5051621;28;19947;-24
2022/11/01 11:47:49;;;;;;;;;;;17.80;99.90;;;;;;5051512;28;19915;-24
2022/11/01 11:50:17;;;;;;;;;;;17.80;99.90;;;;;;5050493;28;19935;-24
2022/11/01 11:52:44;;;;;;;;;;;17.80;99.90;;;;;;5051367;28;19919;-24
2022/11/01 11:55:33;;;;;;;;;;;17.80;99.90;;;;;;5052331;28;19915;-24
2022/11/01 11:57:59;;;;;;;;;;;17.80;99.90;;;;;;5051289;28;19912;-24
2022/11/01 12:00:26;;;;;;;;;;;17.70;99.90;;;;;;5051408;28;19931;-24
2022/11/01 12:02:52;;;;;;;;;;;17.70;99.90;;;;;;5050541;28;19917;-24
2022/11/01 12:05:18;;;;;;;;;;;17.70;99.90;;;;;;5051481;28;19909;-24
2022/11/01 12:07:48;;;;;;;;;;;17.70;99.90;;;;;;5051266;28;19947;-24
2022/11/01 12:10:34;;;;;;;;;;;17.70;99.90;;;;;;5051307;28;19913;-24
2022/11/01 12:13:00;;;;;;;;;;;17.70;99.90;;;;;;5050612;28;19913;-24
2022/11/01 12:15:27;;;;;;;;;;;17.70;99.90;;;;;;5051772;28;20385;-24
2022/11/01 12:17:53;;;;;;;;;;;17.70;99.90;;;;;;5051571;28;20394;-24
2022/11/01 12:20:20;;;;;;;;;;;17.70;99.90;;;;;;5051743;28;19916;-24
2022/11/01 12:22:50;;;;;;;;;;;17.70;99.90;;;;;;5051978;28;19954;-24
2022/11/01 12:25:23;;;;;;;;;;;17.70;99.90;;;;;;5051811;28;19908;-24
2022/11/01 12:27:51;;;;;;;;;;;17.70;99.90;;;;;;5051020;28;20282;-24
2022/11/01 12:30:19;;;;;;;;;;;17.70;99.90;;;;;;5051822;28;19909;-24
2022/11/01 12:32:55;;;;;;;;;;;17.70;99.90;;;;;;5052038;28;20313;-24
2022/11/01 12:35:21;;;;;;;;;;;17.70;99.90;;;;;;5050862;28;20298;-24
2022/11/01 12:37:57;;;;;;;;;;;17.70;99.90;;;;;;5051075;28;19917;-24
2022/11/01 12:40:27;;;;;;;;;;;17.70;99.90;;;;;;5052493;28;19916;-24
2022/11/01 12:43:02;;;;;;;;;;;17.70;99.90;;;;;;5050731;28;19923;-24
2022/11/01 12:45:31;;;;;;;;;;;17.70;99.90;;;;;;5051213;28;19915;-24
2022/11/01 12:48:02;;;;;;;;;;;17.70;99.90;;;;;;5051070;28;19963;-24
2022/11/01 12:50:41;;;;;;;;;;;17.70;99.90;;;;;;5051407;28;20012;-24
2022/11/01 12:53:23;;;;;;;;;;;17.70;99.90;;;;;;5051042;28;20414;-24
2022/11/01 12:55:48;;;;;;;;;;;17.70;99.90;;;;;;5051559;28;19909;-24
2022/11/01 12:58:16;;;;;;;;;;;17.70;99.90;;;;;;5051001;28;19909;-24
2022/11/01 13:00:53;;;;;;;;;;;17.70;99.90;;;;;;5052828;28;19992;-24
2022/11/01 13:03:24;;;;;;;;;;;17.70;99.90;;;;;;5054554;28;19919;-24
2022/11/01 13:05:57;;;;;;;;;;;17.70;99.90;;;;;;5054675;28;20282;-24
2022/11/01 13:08:40;;;;;;;;;;;17.70;99.90;;;;;;5054896;28;19912;-24
2022/11/01 13:11:26;;;;;;;;;;;17.70;99.90;;;;;;5054378;28;19938;-24
2022/11/01 13:14:02;;;;;;;;;;;17.70;99.90;;;;;;5049413;28;19913;-24
2022/11/01 13:16:35;;;;;;;;;;;17.70;99.90;;;;;;5054317;28;20281;-24
2022/11/01 13:19:01;;;;;;;;;;;17.70;99.90;;;;;;5053972;28;19992;-24
2022/11/01 13:21:35;;;;;;;;;;;17.80;99.90;;;;;;5054055;28;20007;-24
2022/11/01 13:24:07;;;;;;;;;;;17.80;99.90;;;;;;5053449;28;19917;-24
2022/11/01 13:26:34;;;;;;;;;;;17.80;99.90;;;;;;5053897;28;19959;-24
2022/11/01 13:29:17;;;;;;;;;;;17.80;99.90;;;;;;5054089;28;19971;-24
2022/11/01 13:31:52;;;;;;;;;;;17.80;99.90;;;;;;5054350;28;20385;-24
2022/11/01 13:34:27;;;;;;;;;;;17.90;99.90;;;;;;5054296;28;19967;-24
2022/11/01 13:39:45;;;;;;;;;;;17.80;99.90;;;;;;5130427;22;19951;-27
2022/11/01 13:42:12;;;;;;;;;;;17.90;99.90;;;;;;5093712;28;20400;-26
2022/11/01 13:44:50;;;;;;;;;;;17.90;99.90;;;;;;5093307;28;19908;-26
2022/11/01 13:47:29;;;;;;;;;;;17.90;99.90;;;;;;5093669;28;19922;-27
2022/11/01 13:49:57;;;;;;;;;;;17.80;99.90;;;;;;5093611;28;19912;-27
2022/11/01 13:52:25;;;;;;;;;;;17.80;99.90;;;;;;5093700;28;19997;-27
2022/11/01 13:55:10;;;;;;;;;;;17.90;99.90;;;;;;5093573;28;19909;-26
2022/11/01 13:57:39;;;;;;;;;;;17.90;99.90;;;;;;5093330;28;20411;-27
2022/11/01 14:00:08;;;;;;;;;;;17.90;99.90;;;;;;5093293;28;20410;-27
2022/11/01 14:02:52;;;;;;;;;;;17.90;99.90;;;;;;5093030;28;20311;-27
2022/11/01 14:05:18;;;;;;;;;;;17.90;99.90;;;;;;5093313;28;19931;-26
2022/11/01 14:07:43;;;;;;;;;;;17.90;99.90;;;;;;5093401;28;20376;-27
2022/11/01 14:10:10;;;;;;;;;;;17.90;99.90;;;;;;5093202;28;20329;-27
2022/11/01 14:12:36;;;;;;;;;;;17.90;99.90;;;;;;5091755;28;19912;-27
2022/11/01 14:15:12;;;;;;;;;;;17.90;99.90;;;;;;5093115;28;19930;-27
2022/11/01 14:17:50;;;;;;;;;;;17.90;99.90;;;;;;5093031;28;19908;-27
2022/11/01 14:20:16;;;;;;;;;;;17.90;99.90;;;;;;5093109;28;20292;-27
2022/11/01 14:22:43;;;;;;;;;;;17.90;99.90;;;;;;5092448;28;19916;-27
2022/11/01 14:25:12;;;;;;;;;;;17.90;99.90;;;;;;5092899;28;19934;-27
2022/11/01 14:27:44;;;;;;;;;;;17.90;99.90;;;;;;5092537;28;19918;-26
2022/11/01 14:30:15;;;;;;;;;;;17.90;99.90;;;;;;5092803;28;19962;-27
2022/11/01 14:32:48;;;;;;;;;;;17.90;99.90;;;;;;5092248;28;20058;-27
2022/11/01 14:35:21;;;;;;;;;;;17.90;99.90;;;;;;5092746;28;19953;-27
2022/11/01 14:37:50;;;;;;;;;;;17.90;99.90;;;;;;5092424;28;19922;-26